sensor_id;sensor_type;location;lat;lon;timestamp;pressure;altitude;pressure_sealevel;temperature;humidity
3544;BME280;1786;52.870;9.578;2022-12-18T00:02:12;101958.56;;;4.00;48.02
3544;BME280;1786;52.870;9.578;2022-12-18T00:04:39;101957.69;;;4.01;48.07
3544;BME280;1786;52.870;9.578;2022-12-18T00:07:06;101961.34;;;3.89;47.90
3544;BME280;1786;52.870;9.578;2022-12-18T00:09:32;101960.72;;;3.71;48.56
3544;BME280;1786;52.870;9.578;2022-12-18T00:12:06;101962.44;;;3.70;48.54
3544;BME280;1786;52.870;9.578;2022-12-18T00:14:41;101961.53;;;3.74;48.55
3544;BME280;1786;52.870;9.578;2022-12-18T00:17:08;101965.06;;;3.72;48.53
3544;BME280;1786;52.870;9.578;2022-12-18T00:19:35;101961.81;;;3.51;48.49
3544;BME280;1786;52.870;9.578;2022-12-18T00:22:02;101961.38;;;3.14;49.54
3544;BME280;1786;52.870;9.578;2022-12-18T00:24:29;101959.53;;;3.22;49.70
3544;BME280;1786;52.870;9.578;2022-12-18T00:26:55;101971.84;;;3.09;49.84
3544;BME280;1786;52.870;9.578;2022-12-18T00:29:22;101963.34;;;2.87;50.49
3544;BME280;1786;52.870;9.578;2022-12-18T00:31:49;101967.41;;;3.19;49.58
3544;BME280;1786;52.870;9.578;2022-12-18T00:34:16;101965.47;;;3.36;49.37
3544;BME280;1786;52.870;9.578;2022-12-18T00:36:43;101977.53;;;3.48;48.64
3544;BME280;1786;52.870;9.578;2022-12-18T00:39:11;101978.28;;;3.59;48.67
3544;BME280;1786;52.870;9.578;2022-12-18T00:41:39;101977.84;;;3.19;49.44
3544;BME280;1786;52.870;9.578;2022-12-18T00:44:24;101984.19;;;2.93;50.34
3544;BME280;1786;52.870;9.578;2022-12-18T00:46:51;101980.94;;;2.70;51.12
3544;BME280;1786;52.870;9.578;2022-12-18T00:49:19;101973.13;;;2.64;50.96
3544;BME280;1786;52.870;9.578;2022-12-18T00:51:47;101969.63;;;2.68;51.39
3544;BME280;1786;52.870;9.578;2022-12-18T00:54:14;101979.38;;;2.41;51.81
3544;BME280;1786;52.870;9.578;2022-12-18T00:56:42;101966.44;;;2.30;52.38
3544;BME280;1786;52.870;9.578;2022-12-18T00:59:16;101974.22;;;2.33;52.52
3544;BME280;1786;52.870;9.578;2022-12-18T01:01:43;101977.63;;;2.43;52.15
3544;BME280;1786;52.870;9.578;2022-12-18T01:04:10;101980.47;;;2.09;52.62
3544;BME280;1786;52.870;9.578;2022-12-18T01:06:38;101976.34;;;1.58;53.98
3544;BME280;1786;52.870;9.578;2022-12-18T01:09:06;101972.06;;;1.38;54.61
3544;BME280;1786;52.870;9.578;2022-12-18T01:11:35;101975.59;;;1.29;54.28
3544;BME280;1786;52.870;9.578;2022-12-18T01:14:04;101970.38;;;1.23;54.86
3544;BME280;1786;52.870;9.578;2022-12-18T01:16:30;101971.09;;;1.71;53.10
3544;BME280;1786;52.870;9.578;2022-12-18T01:18:57;101957.25;;;1.60;53.65
3544;BME280;1786;52.870;9.578;2022-12-18T01:21:26;101955.38;;;1.90;52.72
3544;BME280;1786;52.870;9.578;2022-12-18T01:23:54;101956.56;;;1.01;54.96
3544;BME280;1786;52.870;9.578;2022-12-18T01:26:23;101966.00;;;1.47;54.30
3544;BME280;1786;52.870;9.578;2022-12-18T01:28:50;101966.88;;;1.37;53.87
3544;BME280;1786;52.870;9.578;2022-12-18T01:31:30;101973.03;;;0.93;55.14
3544;BME280;1786;52.870;9.578;2022-12-18T01:33:57;101974.78;;;0.80;55.67
3544;BME280;1786;52.870;9.578;2022-12-18T01:36:31;101975.66;;;0.86;55.39
3544;BME280;1786;52.870;9.578;2022-12-18T01:39:06;101978.22;;;1.14;54.90
3544;BME280;1786;52.870;9.578;2022-12-18T01:41:34;101985.94;;;1.54;53.61
3544;BME280;1786;52.870;9.578;2022-12-18T01:47:31;101991.97;;;1.65;53.46
3544;BME280;1786;52.870;9.578;2022-12-18T01:50:02;101990.06;;;2.01;52.33
3544;BME280;1786;52.870;9.578;2022-12-18T01:52:31;101987.34;;;2.23;51.60
3544;BME280;1786;52.870;9.578;2022-12-18T01:55:00;101993.22;;;2.52;51.20
3544;BME280;1786;52.870;9.578;2022-12-18T01:57:28;101992.31;;;2.58;51.07
3544;BME280;1786;52.870;9.578;2022-12-18T01:59:59;102005.47;;;2.43;51.22
3544;BME280;1786;52.870;9.578;2022-12-18T02:02:39;102009.81;;;2.42;50.85
3544;BME280;1786;52.870;9.578;2022-12-18T02:05:07;102012.44;;;2.39;51.61
3544;BME280;1786;52.870;9.578;2022-12-18T02:07:48;102007.19;;;2.45;51.35
3544;BME280;1786;52.870;9.578;2022-12-18T02:10:28;102003.00;;;2.16;51.76
3544;BME280;1786;52.870;9.578;2022-12-18T02:13:13;102000.50;;;2.04;52.47
3544;BME280;1786;52.870;9.578;2022-12-18T02:16:02;102007.31;;;2.24;52.03
3544;BME280;1786;52.870;9.578;2022-12-18T02:18:37;102006.59;;;1.94;52.23
3544;BME280;1786;52.870;9.578;2022-12-18T02:24:10;101999.50;;;2.22;51.55
3544;BME280;1786;52.870;9.578;2022-12-18T02:26:49;101996.78;;;2.39;51.17
3544;BME280;1786;52.870;9.578;2022-12-18T02:29:24;101988.19;;;2.23;51.59
3544;BME280;1786;52.870;9.578;2022-12-18T02:31:57;101993.50;;;2.06;52.08
3544;BME280;1786;52.870;9.578;2022-12-18T02:34:32;101994.38;;;2.08;51.82
3544;BME280;1786;52.870;9.578;2022-12-18T02:37:04;101987.53;;;1.87;52.12
3544;BME280;1786;52.870;9.578;2022-12-18T02:39:34;101983.13;;;2.00;51.92
3544;BME280;1786;52.870;9.578;2022-12-18T02:42:04;101983.75;;;2.39;51.34
3544;BME280;1786;52.870;9.578;2022-12-18T02:44:41;101979.16;;;2.72;50.42
3544;BME280;1786;52.870;9.578;2022-12-18T02:47:11;101978.97;;;2.93;49.99
3544;BME280;1786;52.870;9.578;2022-12-18T02:59:08;101981.28;;;3.24;47.48
3544;BME280;1786;52.870;9.578;2022-12-18T03:01:49;101974.41;;;3.14;46.91
3544;BME280;1786;52.870;9.578;2022-12-18T03:04:26;101975.31;;;3.13;46.33
3544;BME280;1786;52.870;9.578;2022-12-18T03:06:59;101984.03;;;3.09;46.00
3544;BME280;1786;52.870;9.578;2022-12-18T03:09:34;101981.50;;;3.02;46.13
3544;BME280;1786;52.870;9.578;2022-12-18T03:12:08;101989.38;;;2.96;45.94
3544;BME280;1786;52.870;9.578;2022-12-18T03:14:58;101989.44;;;2.90;45.50
3544;BME280;1786;52.870;9.578;2022-12-18T03:17:31;101985.13;;;2.85;45.61
3544;BME280;1786;52.870;9.578;2022-12-18T03:20:03;101994.69;;;2.84;45.22
3544;BME280;1786;52.870;9.578;2022-12-18T03:22:33;101993.91;;;2.74;45.39
3544;BME280;1786;52.870;9.578;2022-12-18T03:25:05;101991.38;;;2.70;45.55
3544;BME280;1786;52.870;9.578;2022-12-18T03:27:36;102001.88;;;2.60;44.99
3544;BME280;1786;52.870;9.578;2022-12-18T03:30:10;102004.47;;;2.59;44.91
3544;BME280;1786;52.870;9.578;2022-12-18T03:32:49;102008.88;;;2.52;44.77
3544;BME280;1786;52.870;9.578;2022-12-18T03:35:29;102013.28;;;2.41;44.71
3544;BME280;1786;52.870;9.578;2022-12-18T03:37:57;102009.00;;;2.37;44.87
3544;BME280;1786;52.870;9.578;2022-12-18T03:40:31;102009.81;;;2.39;44.67
3544;BME280;1786;52.870;9.578;2022-12-18T03:43:08;102007.25;;;2.36;44.50
3544;BME280;1786;52.870;9.578;2022-12-18T03:45:42;102000.34;;;2.27;44.81
3544;BME280;1786;52.870;9.578;2022-12-18T03:48:19;102002.97;;;2.26;45.10
3544;BME280;1786;52.870;9.578;2022-12-18T03:50:56;102002.13;;;2.19;44.95
3544;BME280;1786;52.870;9.578;2022-12-18T03:56:20;102000.41;;;2.16;45.41
3544;BME280;1786;52.870;9.578;2022-12-18T03:58:50;101995.19;;;2.20;45.35
3544;BME280;1786;52.870;9.578;2022-12-18T04:01:25;101997.78;;;2.18;45.01
3544;BME280;1786;52.870;9.578;2022-12-18T04:03:56;101998.66;;;2.19;45.15
3544;BME280;1786;52.870;9.578;2022-12-18T04:06:26;102000.41;;;2.16;45.10
3544;BME280;1786;52.870;9.578;2022-12-18T04:08:53;102001.28;;;2.15;44.81
3544;BME280;1786;52.870;9.578;2022-12-18T04:11:23;101996.97;;;2.14;45.03
3544;BME280;1786;52.870;9.578;2022-12-18T04:13:50;102009.13;;;2.12;45.10
3544;BME280;1786;52.870;9.578;2022-12-18T04:16:21;102007.38;;;2.11;44.86
3544;BME280;1786;52.870;9.578;2022-12-18T04:18:51;102012.63;;;2.05;44.63
3544;BME280;1786;52.870;9.578;2022-12-18T04:21:19;102000.47;;;2.01;44.75
3544;BME280;1786;52.870;9.578;2022-12-18T04:23:48;101998.78;;;1.97;45.38
3544;BME280;1786;52.870;9.578;2022-12-18T04:26:17;101997.97;;;1.84;46.26
3544;BME280;1786;52.870;9.578;2022-12-18T04:28:53;101994.50;;;1.87;46.70
3544;BME280;1786;52.870;9.578;2022-12-18T04:31:21;101993.59;;;1.88;47.57
3544;BME280;1786;52.870;9.578;2022-12-18T04:33:48;101997.09;;;1.84;47.96
3544;BME280;1786;52.870;9.578;2022-12-18T04:36:15;101998.84;;;1.79;48.83
3544;BME280;1786;52.870;9.578;2022-12-18T04:38:44;101991.81;;;1.99;47.67
3544;BME280;1786;52.870;9.578;2022-12-18T04:41:14;101994.38;;;2.08;47.07
3544;BME280;1786;52.870;9.578;2022-12-18T04:43:43;101985.69;;;2.08;46.58
3544;BME280;1786;52.870;9.578;2022-12-18T04:46:09;101982.22;;;2.01;45.51
3544;BME280;1786;52.870;9.578;2022-12-18T04:48:37;101985.81;;;1.80;45.54
3544;BME280;1786;52.870;9.578;2022-12-18T04:51:05;101984.94;;;1.83;45.10
3544;BME280;1786;52.870;9.578;2022-12-18T04:53:32;101986.66;;;1.84;45.10
3544;BME280;1786;52.870;9.578;2022-12-18T04:58:30;101991.94;;;1.75;44.36
3544;BME280;1786;52.870;9.578;2022-12-18T05:00:57;101986.72;;;1.75;44.31
3544;BME280;1786;52.870;9.578;2022-12-18T05:03:23;101991.94;;;1.68;44.81
3544;BME280;1786;52.870;9.578;2022-12-18T05:05:51;101999.78;;;1.61;44.39
3544;BME280;1786;52.870;9.578;2022-12-18T05:08:17;101998.91;;;1.59;44.24
3544;BME280;1786;52.870;9.578;2022-12-18T05:10:45;102006.75;;;1.57;44.20
3544;BME280;1786;52.870;9.578;2022-12-18T05:13:12;102011.97;;;1.54;44.21
3544;BME280;1786;52.870;9.578;2022-12-18T05:15:39;102009.38;;;1.54;44.26
3544;BME280;1786;52.870;9.578;2022-12-18T05:18:05;102007.63;;;1.50;44.34
3544;BME280;1786;52.870;9.578;2022-12-18T05:20:32;102002.44;;;1.50;44.37
3544;BME280;1786;52.870;9.578;2022-12-18T05:22:59;102007.63;;;1.50;44.38
3544;BME280;1786;52.870;9.578;2022-12-18T05:25:26;102005.03;;;1.53;44.47
3544;BME280;1786;52.870;9.578;2022-12-18T05:27:53;102009.38;;;1.54;44.51
3544;BME280;1786;52.870;9.578;2022-12-18T05:30:19;102013.69;;;1.55;44.78
3544;BME280;1786;52.870;9.578;2022-12-18T05:32:46;102025.84;;;1.53;44.67
3544;BME280;1786;52.870;9.578;2022-12-18T05:35:13;102026.72;;;1.55;44.37
3544;BME280;1786;52.870;9.578;2022-12-18T05:37:39;102028.47;;;1.55;44.69
3544;BME280;1786;52.870;9.578;2022-12-18T05:40:09;102030.22;;;1.54;44.44
3544;BME280;1786;52.870;9.578;2022-12-18T05:42:36;102036.28;;;1.55;44.33
3544;BME280;1786;52.870;9.578;2022-12-18T05:45:04;102034.59;;;1.37;44.51
3544;BME280;1786;52.870;9.578;2022-12-18T05:47:31;102031.97;;;1.40;44.23
3544;BME280;1786;52.870;9.578;2022-12-18T05:49:57;102047.59;;;1.41;44.17
3544;BME280;1786;52.870;9.578;2022-12-18T05:52:24;102050.22;;;1.37;44.82
3544;BME280;1786;52.870;9.578;2022-12-18T05:54:51;102046.75;;;1.36;44.77
3544;BME280;1786;52.870;9.578;2022-12-18T05:57:17;102042.41;;;1.37;44.13
3544;BME280;1786;52.870;9.578;2022-12-18T05:59:44;102042.38;;;1.35;44.38
3544;BME280;1786;52.870;9.578;2022-12-18T06:02:11;102044.13;;;1.35;44.48
3544;BME280;1786;52.870;9.578;2022-12-18T06:04:38;102050.19;;;1.40;44.21
3544;BME280;1786;52.870;9.578;2022-12-18T06:07:04;102048.47;;;1.40;44.82
3544;BME280;1786;52.870;9.578;2022-12-18T06:09:31;102050.19;;;1.43;44.55
3544;BME280;1786;52.870;9.578;2022-12-18T06:11:58;102045.00;;;1.44;44.79
3544;BME280;1786;52.870;9.578;2022-12-18T06:14:25;102040.66;;;1.46;45.49
3544;BME280;1786;52.870;9.578;2022-12-18T06:16:52;102051.91;;;1.51;46.03
3544;BME280;1786;52.870;9.578;2022-12-18T06:19:18;102051.03;;;1.57;46.33
3544;BME280;1786;52.870;9.578;2022-12-18T06:21:46;102045.81;;;1.66;47.12
3544;BME280;1786;52.870;9.578;2022-12-18T06:24:13;102051.00;;;1.69;46.66
3544;BME280;1786;52.870;9.578;2022-12-18T06:26:39;102047.50;;;1.77;46.89
3544;BME280;1786;52.870;9.578;2022-12-18T06:29:07;102056.16;;;1.79;46.21
3544;BME280;1786;52.870;9.578;2022-12-18T06:31:34;102051.84;;;1.79;46.17
3544;BME280;1786;52.870;9.578;2022-12-18T06:34:03;102043.13;;;1.79;45.59
3544;BME280;1786;52.870;9.578;2022-12-18T06:36:30;102040.56;;;1.76;45.17
3544;BME280;1786;52.870;9.578;2022-12-18T06:38:58;102045.78;;;1.72;45.18
3544;BME280;1786;52.870;9.578;2022-12-18T06:41:24;102041.44;;;1.68;45.18
3544;BME280;1786;52.870;9.578;2022-12-18T06:43:52;102043.22;;;1.66;45.30
3544;BME280;1786;52.870;9.578;2022-12-18T06:46:25;102046.69;;;1.64;45.25
3544;BME280;1786;52.870;9.578;2022-12-18T06:48:52;102058.81;;;1.65;45.44
3544;BME280;1786;52.870;9.578;2022-12-18T06:51:20;102056.22;;;1.63;45.26
3544;BME280;1786;52.870;9.578;2022-12-18T06:53:47;102055.34;;;1.63;45.10
3544;BME280;1786;52.870;9.578;2022-12-18T06:56:14;102064.06;;;1.56;46.13
3544;BME280;1786;52.870;9.578;2022-12-18T06:58:41;102071.03;;;1.47;46.08
3544;BME280;1786;52.870;9.578;2022-12-18T07:01:09;102075.31;;;1.56;46.66
3544;BME280;1786;52.870;9.578;2022-12-18T07:03:38;102082.28;;;1.57;46.71
3544;BME280;1786;52.870;9.578;2022-12-18T07:06:06;102084.03;;;1.64;46.49
3544;BME280;1786;52.870;9.578;2022-12-18T07:08:33;102075.31;;;1.68;46.83
3544;BME280;1786;52.870;9.578;2022-12-18T07:11:03;102073.56;;;1.73;47.12
3544;BME280;1786;52.870;9.578;2022-12-18T07:13:30;102079.66;;;1.72;47.86
3544;BME280;1786;52.870;9.578;2022-12-18T07:16:15;102074.41;;;1.80;47.32
3544;BME280;1786;52.870;9.578;2022-12-18T07:18:50;102078.75;;;1.81;47.42
3544;BME280;1786;52.870;9.578;2022-12-18T07:21:19;102073.63;;;1.43;48.79
3544;BME280;1786;52.870;9.578;2022-12-18T07:23:46;102074.47;;;1.57;48.71
3544;BME280;1786;52.870;9.578;2022-12-18T07:26:16;102075.31;;;1.71;48.70
3544;BME280;1786;52.870;9.578;2022-12-18T07:28:43;102076.97;;;1.91;48.74
3544;BME280;1786;52.870;9.578;2022-12-18T07:31:18;102086.50;;;2.04;48.20
3544;BME280;1786;52.870;9.578;2022-12-18T07:33:47;102089.94;;;2.15;48.03
3544;BME280;1786;52.870;9.578;2022-12-18T07:36:15;102098.56;;;2.24;47.89
3544;BME280;1786;52.870;9.578;2022-12-18T07:38:41;102099.41;;;2.33;47.83
3544;BME280;1786;52.870;9.578;2022-12-18T07:41:12;102105.47;;;2.40;47.45
3544;BME280;1786;52.870;9.578;2022-12-18T07:43:40;102104.56;;;2.47;47.67
3544;BME280;1786;52.870;9.578;2022-12-18T07:46:08;102115.84;;;2.52;47.39
3544;BME280;1786;52.870;9.578;2022-12-18T07:48:35;102117.53;;;2.58;47.37
3544;BME280;1786;52.870;9.578;2022-12-18T07:51:04;102113.16;;;2.65;47.14
3544;BME280;1786;52.870;9.578;2022-12-18T07:53:32;102113.16;;;2.65;47.10
3544;BME280;1786;52.870;9.578;2022-12-18T07:56:01;102113.09;;;2.74;46.94
3544;BME280;1786;52.870;9.578;2022-12-18T07:58:48;102107.84;;;2.80;46.94
3544;BME280;1786;52.870;9.578;2022-12-18T08:01:15;102096.53;;;2.81;46.83
3544;BME280;1786;52.870;9.578;2022-12-18T08:03:42;102099.94;;;2.89;47.27
3544;BME280;1786;52.870;9.578;2022-12-18T08:06:09;102099.06;;;2.93;47.52
3544;BME280;1786;52.870;9.578;2022-12-18T08:08:36;102096.22;;;3.19;49.60
3544;BME280;1786;52.870;9.578;2022-12-18T08:11:03;102091.22;;;3.87;53.47
3544;BME280;1786;52.870;9.578;2022-12-18T08:13:30;102094.47;;;4.73;54.71
3544;BME280;1786;52.870;9.578;2022-12-18T08:16:02;102079.00;;;5.13;52.66
3544;BME280;1786;52.870;9.578;2022-12-18T08:18:29;102081.31;;;5.80;52.53
3544;BME280;1786;52.870;9.578;2022-12-18T08:20:56;102075.28;;;6.60;53.01
3544;BME280;1786;52.870;9.578;2022-12-18T08:23:22;102069.19;;;7.64;52.63
3544;BME280;1786;52.870;9.578;2022-12-18T08:25:54;102069.50;;;8.74;51.13
3544;BME280;1786;52.870;9.578;2022-12-18T08:28:20;102072.31;;;9.47;47.97
3544;BME280;1786;52.870;9.578;2022-12-18T08:30:51;102076.59;;;10.00;46.35
3544;BME280;1786;52.870;9.578;2022-12-18T08:33:18;102070.75;;;10.15;45.25
3544;BME280;1786;52.870;9.578;2022-12-18T08:35:45;102078.72;;;10.83;45.46
3544;BME280;1786;52.870;9.578;2022-12-18T08:38:12;102082.03;;;11.51;43.26
3544;BME280;1786;52.870;9.578;2022-12-18T08:40:38;102079.78;;;11.83;41.95
3544;BME280;1786;52.870;9.578;2022-12-18T08:43:05;102082.88;;;12.32;40.17
3544;BME280;1786;52.870;9.578;2022-12-18T08:45:50;102085.09;;;11.83;38.99
3544;BME280;1786;52.870;9.578;2022-12-18T08:48:17;102080.72;;;11.41;39.77
3544;BME280;1786;52.870;9.578;2022-12-18T08:50:58;102082.91;;;10.67;40.19
3544;BME280;1786;52.870;9.578;2022-12-18T08:53:26;102083.09;;;10.62;41.00
3544;BME280;1786;52.870;9.578;2022-12-18T08:55:59;102080.91;;;11.16;41.02
3544;BME280;1786;52.870;9.578;2022-12-18T08:58:26;102083.59;;;10.94;39.67
3544;BME280;1786;52.870;9.578;2022-12-18T09:00:52;102082.84;;;11.33;42.04
3544;BME280;1786;52.870;9.578;2022-12-18T09:03:19;102074.19;;;11.50;39.58
3544;BME280;1786;52.870;9.578;2022-12-18T09:05:50;102074.50;;;11.62;38.61
3544;BME280;1786;52.870;9.578;2022-12-18T09:08:16;102074.97;;;12.11;39.16
3544;BME280;1786;52.870;9.578;2022-12-18T09:10:44;102071.31;;;11.95;38.53
3544;BME280;1786;52.870;9.578;2022-12-18T09:13:11;102073.06;;;11.35;39.04
3544;BME280;1786;52.870;9.578;2022-12-18T09:15:49;102077.72;;;10.42;40.46
3544;BME280;1786;52.870;9.578;2022-12-18T09:18:17;102073.88;;;10.03;41.15
3544;BME280;1786;52.870;9.578;2022-12-18T09:20:44;102073.34;;;9.93;41.41
3544;BME280;1786;52.870;9.578;2022-12-18T09:23:12;102073.34;;;9.68;42.03
3544;BME280;1786;52.870;9.578;2022-12-18T09:25:39;102061.66;;;9.75;42.36
3544;BME280;1786;52.870;9.578;2022-12-18T09:28:11;102064.31;;;9.25;42.49
3544;BME280;1786;52.870;9.578;2022-12-18T09:30:44;102063.13;;;8.81;42.99
3544;BME280;1786;52.870;9.578;2022-12-18T09:33:11;102067.94;;;8.68;44.00
3544;BME280;1786;52.870;9.578;2022-12-18T09:35:39;102059.38;;;8.88;43.85
3544;BME280;1786;52.870;9.578;2022-12-18T09:38:06;102052.97;;;9.22;43.71
3544;BME280;1786;52.870;9.578;2022-12-18T09:40:41;102054.84;;;10.17;42.73
3544;BME280;1786;52.870;9.578;2022-12-18T09:43:17;102073.84;;;10.27;42.01
3544;BME280;1786;52.870;9.578;2022-12-18T09:45:50;102063.75;;;9.91;42.89
3544;BME280;1786;52.870;9.578;2022-12-18T09:48:23;102062.22;;;9.60;42.92
3544;BME280;1786;52.870;9.578;2022-12-18T09:50:57;102064.16;;;9.30;43.53
3544;BME280;1786;52.870;9.578;2022-12-18T09:53:28;102068.31;;;8.56;43.89
3544;BME280;1786;52.870;9.578;2022-12-18T09:55:58;102069.47;;;8.47;44.72
3544;BME280;1786;52.870;9.578;2022-12-18T09:58:40;102079.16;;;8.75;44.67
3544;BME280;1786;52.870;9.578;2022-12-18T10:01:14;102097.66;;;8.72;45.30
3544;BME280;1786;52.870;9.578;2022-12-18T10:03:43;102105.63;;;8.42;44.90
3544;BME280;1786;52.870;9.578;2022-12-18T10:06:16;102096.03;;;8.08;45.67
3544;BME280;1786;52.870;9.578;2022-12-18T10:09:05;102084.47;;;7.50;46.47
3544;BME280;1786;52.870;9.578;2022-12-18T10:11:53;102087.13;;;7.14;47.59
3544;BME280;1786;52.870;9.578;2022-12-18T10:14:36;102093.91;;;7.24;47.95
3544;BME280;1786;52.870;9.578;2022-12-18T10:17:18;102100.66;;;7.34;47.46
3544;BME280;1786;52.870;9.578;2022-12-18T10:20:01;102110.97;;;7.75;47.37
3544;BME280;1786;52.870;9.578;2022-12-18T10:28:16;102091.78;;;8.04;46.17
3544;BME280;1786;52.870;9.578;2022-12-18T10:30:44;102094.56;;;7.98;46.23
3544;BME280;1786;52.870;9.578;2022-12-18T10:33:18;102096.31;;;7.66;47.17
3544;BME280;1786;52.870;9.578;2022-12-18T10:35:47;102089.28;;;7.98;47.18
3544;BME280;1786;52.870;9.578;2022-12-18T10:41:02;102081.06;;;7.79;47.39
3544;BME280;1786;52.870;9.578;2022-12-18T10:43:34;102077.56;;;7.46;47.73
3544;BME280;1786;52.870;9.578;2022-12-18T10:51:33;102069.25;;;7.28;48.11
3544;BME280;1786;52.870;9.578;2022-12-18T10:54:23;102070.75;;;6.67;48.74
3544;BME280;1786;52.870;9.578;2022-12-18T10:56:50;102054.78;;;6.76;48.91
3544;BME280;1786;52.870;9.578;2022-12-18T10:59:17;102047.28;;;6.97;48.56
3544;BME280;1786;52.870;9.578;2022-12-18T11:04:32;102037.28;;;7.11;47.85
3544;BME280;1786;52.870;9.578;2022-12-18T11:09:31;102045.84;;;7.18;48.72
3544;BME280;1786;52.870;9.578;2022-12-18T11:12:19;102047.63;;;6.44;49.34
3544;BME280;1786;52.870;9.578;2022-12-18T11:14:50;102052.81;;;6.84;49.00
3544;BME280;1786;52.870;9.578;2022-12-18T11:19:57;102048.19;;;6.96;48.72
3544;BME280;1786;52.870;9.578;2022-12-18T11:22:32;102054.34;;;6.17;49.59
3544;BME280;1786;52.870;9.578;2022-12-18T11:25:18;102047.63;;;6.03;50.17
3544;BME280;1786;52.870;9.578;2022-12-18T11:28:45;102033.81;;;5.95;50.55
3544;BME280;1786;52.870;9.578;2022-12-18T11:31:11;102019.19;;;5.82;50.77
3544;BME280;1786;52.870;9.578;2022-12-18T11:33:42;102034.50;;;6.05;50.36
3544;BME280;1786;52.870;9.578;2022-12-18T11:36:37;102026.97;;;5.86;50.45
3544;BME280;1786;52.870;9.578;2022-12-18T11:39:24;102021.25;;;5.68;51.45
3544;BME280;1786;52.870;9.578;2022-12-18T11:41:59;102015.06;;;6.12;50.51
3544;BME280;1786;52.870;9.578;2022-12-18T11:47:15;101997.69;;;6.08;50.53
3544;BME280;1786;52.870;9.578;2022-12-18T11:49:49;101998.75;;;5.99;50.76
3544;BME280;1786;52.870;9.578;2022-12-18T11:52:24;101997.56;;;5.72;51.51
3544;BME280;1786;52.870;9.578;2022-12-18T11:54:56;101992.41;;;5.68;51.60
3544;BME280;1786;52.870;9.578;2022-12-18T11:57:36;101983.88;;;6.00;51.27
3544;BME280;1786;52.870;9.578;2022-12-18T12:03:06;101992.41;;;5.68;51.50
3544;BME280;1786;52.870;9.578;2022-12-18T12:06:03;101968.78;;;6.10;50.91
3544;BME280;1786;52.870;9.578;2022-12-18T12:08:52;101968.97;;;6.41;50.51
3544;BME280;1786;52.870;9.578;2022-12-18T12:17:18;101935.19;;;6.96;49.64
3544;BME280;1786;52.870;9.578;2022-12-18T12:22:30;101937.84;;;6.60;49.28
3544;BME280;1786;52.870;9.578;2022-12-18T12:25:26;101930.19;;;6.15;50.31
3544;BME280;1786;52.870;9.578;2022-12-18T12:38:49;101917.53;;;6.32;50.24
3544;BME280;1786;52.870;9.578;2022-12-18T12:41:23;101917.75;;;6.59;49.49
3544;BME280;1786;52.870;9.578;2022-12-18T12:44:17;101930.41;;;6.77;48.95
3544;BME280;1786;52.870;9.578;2022-12-18T12:46:48;101933.09;;;6.76;49.51
3544;BME280;1786;52.870;9.578;2022-12-18T12:49:18;101921.97;;;6.66;48.90
3544;BME280;1786;52.870;9.578;2022-12-18T12:52:10;101917.75;;;7.26;47.64
3544;BME280;1786;52.870;9.578;2022-12-18T12:54:40;101903.47;;;6.70;48.62
3544;BME280;1786;52.870;9.578;2022-12-18T12:57:24;101893.94;;;6.65;48.67
3544;BME280;1786;52.870;9.578;2022-12-18T13:05:30;101899.03;;;7.36;47.86
3544;BME280;1786;52.870;9.578;2022-12-18T13:08:09;101898.44;;;7.25;46.91
3544;BME280;1786;52.870;9.578;2022-12-18T13:10:38;101894.19;;;7.80;46.73
3544;BME280;1786;52.870;9.578;2022-12-18T13:13:12;101896.72;;;8.40;45.94
3544;BME280;1786;52.870;9.578;2022-12-18T13:16:03;101899.28;;;7.87;47.06
3544;BME280;1786;52.870;9.578;2022-12-18T13:18:33;101894.50;;;7.71;47.57
3544;BME280;1786;52.870;9.578;2022-12-18T13:23:36;101901.84;;;6.98;48.62
3544;BME280;1786;52.870;9.578;2022-12-18T13:31:15;101899.69;;;6.09;49.99
3544;BME280;1786;52.870;9.578;2022-12-18T13:37:33;101885.44;;;6.21;49.94
3544;BME280;1786;52.870;9.578;2022-12-18T13:39:43;101885.91;;;6.01;49.95
3544;BME280;1786;52.870;9.578;2022-12-18T13:44:57;101879.00;;;5.97;50.99
3544;BME280;1786;52.870;9.578;2022-12-18T13:47:30;101880.69;;;5.99;50.85
3544;BME280;1786;52.870;9.578;2022-12-18T13:50:00;101872.72;;;5.65;50.76
3544;BME280;1786;52.870;9.578;2022-12-18T13:52:35;101878.06;;;5.99;50.67
3544;BME280;1786;52.870;9.578;2022-12-18T13:55:06;101870.44;;;5.87;50.43
3544;BME280;1786;52.870;9.578;2022-12-18T13:57:36;101857.69;;;5.72;50.93
3544;BME280;1786;52.870;9.578;2022-12-18T14:00:26;101860.53;;;6.01;50.55
3544;BME280;1786;52.870;9.578;2022-12-18T14:02:56;101860.41;;;6.07;50.69
3544;BME280;1786;52.870;9.578;2022-12-18T14:05:26;101853.25;;;5.75;51.00
3544;BME280;1786;52.870;9.578;2022-12-18T14:07:54;101865.59;;;5.70;50.51
3544;BME280;1786;52.870;9.578;2022-12-18T14:10:22;101858.22;;;5.88;50.64
3544;BME280;1786;52.870;9.578;2022-12-18T14:13:10;101867.91;;;5.45;51.59
3544;BME280;1786;52.870;9.578;2022-12-18T14:15:46;101863.16;;;5.62;51.33
3544;BME280;1786;52.870;9.578;2022-12-18T14:21:06;101858.00;;;5.16;52.26
3544;BME280;1786;52.870;9.578;2022-12-18T14:23:40;101841.16;;;4.86;52.62
3544;BME280;1786;52.870;9.578;2022-12-18T14:26:25;101841.19;;;4.84;52.57
3544;BME280;1786;52.870;9.578;2022-12-18T14:28:56;101833.94;;;4.52;53.25
3544;BME280;1786;52.870;9.578;2022-12-18T14:31:28;101827.78;;;4.54;53.44
3544;BME280;1786;52.870;9.578;2022-12-18T14:33:55;101829.25;;;4.68;53.05
3544;BME280;1786;52.870;9.578;2022-12-18T14:36:27;101820.09;;;4.92;52.58
3544;BME280;1786;52.870;9.578;2022-12-18T14:38:56;101810.34;;;4.53;53.21
3544;BME280;1786;52.870;9.578;2022-12-18T14:41:24;101805.44;;;4.37;53.51
3544;BME280;1786;52.870;9.578;2022-12-18T14:43:52;101811.53;;;4.36;53.46
3544;BME280;1786;52.870;9.578;2022-12-18T14:49:17;101828.59;;;4.08;54.24
3544;BME280;1786;52.870;9.578;2022-12-18T14:51:53;101806.56;;;4.20;54.12
3544;BME280;1786;52.870;9.578;2022-12-18T14:54:23;101810.47;;;4.46;53.94
3544;BME280;1786;52.870;9.578;2022-12-18T14:57:03;101810.47;;;3.95;54.59
3544;BME280;1786;52.870;9.578;2022-12-18T14:59:31;101800.72;;;4.06;54.69
3544;BME280;1786;52.870;9.578;2022-12-18T15:02:27;101809.88;;;3.77;55.04
3544;BME280;1786;52.870;9.578;2022-12-18T15:05:16;101809.81;;;3.82;55.60
3544;BME280;1786;52.870;9.578;2022-12-18T15:07:48;101804.75;;;3.71;56.06
3544;BME280;1786;52.870;9.578;2022-12-18T15:12:43;101795.06;;;4.30;54.77
3544;BME280;1786;52.870;9.578;2022-12-18T15:18:00;101786.34;;;4.30;54.23
3544;BME280;1786;52.870;9.578;2022-12-18T15:20:27;101780.63;;;4.08;54.81
3544;BME280;1786;52.870;9.578;2022-12-18T15:22:53;101781.31;;;4.18;54.57
3544;BME280;1786;52.870;9.578;2022-12-18T15:25:35;101788.19;;;4.25;54.78